Time;durP1;ratioP1;P1;durP2;ratioP2;P2;SDS_P1;SDS_P2;PMS_P1;PMS_P2;Temp;Humidity;BMP_temperature;BMP_pressure;BME280_temperature;BME280_humidity;BME280_pressure;Samples;Min_cycle;Max_cycle;Signal;HPM_P1;HPM_P2
2022/02/16 00:01:04;;;;;;;0.90;0.80;;;;;;;;;;5010900;28;20174;-61
2022/02/16 00:03:31;;;;;;;0.90;0.90;;;;;;;;;;5015824;28;20182;-61
2022/02/16 00:06:01;;;;;;;1.30;1.20;;;;;;;;;;5009188;28;20241;-61
2022/02/16 00:08:27;;;;;;;0.83;0.83;;;;;;;;;;5019510;28;20186;-61
2022/02/16 00:10:57;;;;;;;0.93;0.93;;;;;;;;;;5008559;28;20178;-61
2022/02/16 00:13:27;;;;;;;1.10;1.00;;;;;;;;;;5008268;28;20223;-61
2022/02/16 00:15:53;;;;;;;0.73;0.73;;;;;;;;;;5015769;28;20269;-61
2022/02/16 00:18:22;;;;;;;0.80;0.80;;;;;;;;;;5022448;28;20174;-61
2022/02/16 00:20:49;;;;;;;1.30;1.20;;;;;;;;;;5023732;28;20177;-61
2022/02/16 00:23:18;;;;;;;1.20;1.10;;;;;;;;;;5023539;28;20563;-61
2022/02/16 00:25:55;;;;;;;1.57;0.80;;;;;;;;;;5020731;28;20261;-61
2022/02/16 00:28:22;;;;;;;0.90;0.90;;;;;;;;;;5021974;28;20205;-61
2022/02/16 00:30:48;;;;;;;1.30;0.90;;;;;;;;;;5020576;28;20183;-61
2022/02/16 00:33:17;;;;;;;0.90;0.90;;;;;;;;;;5005459;28;20482;-61
2022/02/16 00:35:43;;;;;;;1.37;1.10;;;;;;;;;;5020315;28;20253;-61
2022/02/16 00:38:09;;;;;;;1.13;1.07;;;;;;;;;;5012049;28;20183;-61
2022/02/16 00:40:36;;;;;;;0.87;0.87;;;;;;;;;;5004569;28;20181;-60
2022/02/16 00:43:03;;;;;;;1.20;0.97;;;;;;;;;;4980723;28;20183;-61
2022/02/16 00:45:32;;;;;;;1.00;1.00;;;;;;;;;;5018010;28;20654;-61
2022/02/16 00:48:02;;;;;;;0.87;0.83;;;;;;;;;;5001956;28;20190;-61
2022/02/16 00:50:29;;;;;;;1.50;0.90;;;;;;;;;;5021264;28;20186;-61
2022/02/16 00:52:55;;;;;;;0.80;0.80;;;;;;;;;;5016538;28;20237;-61
2022/02/16 00:55:24;;;;;;;1.17;1.07;;;;;;;;;;5003935;28;20187;-61
2022/02/16 00:57:51;;;;;;;1.07;1.03;;;;;;;;;;5025686;28;20206;-62
2022/02/16 01:00:20;;;;;;;1.20;1.07;;;;;;;;;;5014822;28;20170;-61
2022/02/16 01:02:47;;;;;;;0.80;0.80;;;;;;;;;;5022602;28;20605;-61
2022/02/16 01:05:14;;;;;;;1.03;1.00;;;;;;;;;;5012872;28;20202;-61
2022/02/16 01:07:43;;;;;;;1.87;1.10;;;;;;;;;;5015675;28;20248;-61
2022/02/16 01:10:10;;;;;;;0.80;0.80;;;;;;;;;;5014353;28;20540;-61
2022/02/16 01:12:37;;;;;;;3.07;1.10;;;;;;;;;;4999333;28;20206;-61
2022/02/16 01:15:06;;;;;;;1.20;1.10;;;;;;;;;;5010335;28;20179;-60
2022/02/16 01:17:33;;;;;;;1.83;0.87;;;;;;;;;;5015843;28;20179;-61
2022/02/16 01:20:02;;;;;;;0.90;0.90;;;;;;;;;;5013147;28;20661;-61
2022/02/16 01:22:29;;;;;;;1.07;0.90;;;;;;;;;;5012200;28;20638;-61
2022/02/16 01:24:55;;;;;;;2.10;1.00;;;;;;;;;;5029354;28;20675;-61
2022/02/16 01:27:31;;;;;;;0.80;0.80;;;;;;;;;;5002949;28;20184;-61
2022/02/16 01:30:03;;;;;;;0.90;0.90;;;;;;;;;;5021833;28;20189;-61
2022/02/16 01:32:29;;;;;;;1.10;1.00;;;;;;;;;;5022908;28;20532;-61
2022/02/16 01:34:55;;;;;;;1.03;0.90;;;;;;;;;;5020127;28;20245;-61
2022/02/16 01:37:22;;;;;;;1.23;1.13;;;;;;;;;;5022175;28;20177;-61
2022/02/16 01:39:52;;;;;;;3.23;1.00;;;;;;;;;;5010952;28;20298;-61
2022/02/16 01:42:19;;;;;;;1.27;1.07;;;;;;;;;;5010487;28;20174;-61
2022/02/16 01:44:48;;;;;;;0.90;0.90;;;;;;;;;;5021133;28;20185;-61
2022/02/16 01:47:15;;;;;;;3.10;1.10;;;;;;;;;;5029969;28;20597;-61
2022/02/16 01:49:44;;;;;;;2.60;1.10;;;;;;;;;;5028197;28;20196;-61
2022/02/16 01:52:14;;;;;;;1.10;1.00;;;;;;;;;;5022661;28;20264;-61
2022/02/16 01:54:40;;;;;;;1.00;1.00;;;;;;;;;;5027152;28;20241;-61
2022/02/16 01:57:07;;;;;;;0.80;0.80;;;;;;;;;;5007820;28;20296;-60
2022/02/16 01:59:34;;;;;;;0.80;0.80;;;;;;;;;;5023297;28;20174;-61
2022/02/16 02:02:00;;;;;;;1.07;1.03;;;;;;;;;;5018948;28;20178;-61
2022/02/16 02:04:26;;;;;;;1.10;1.00;;;;;;;;;;5021677;28;20276;-61
2022/02/16 02:06:52;;;;;;;1.63;0.80;;;;;;;;;;5025077;28;20664;-61
2022/02/16 02:09:19;;;;;;;0.97;0.90;;;;;;;;;;5011504;28;20642;-61
2022/02/16 02:11:45;;;;;;;1.20;0.77;;;;;;;;;;5013474;28;20230;-61
2022/02/16 02:14:14;;;;;;;0.80;0.80;;;;;;;;;;5015637;28;20194;-61
2022/02/16 02:16:41;;;;;;;0.90;0.90;;;;;;;;;;5021041;28;20656;-61
2022/02/16 02:19:11;;;;;;;0.87;0.87;;;;;;;;;;5017339;28;20210;-61
2022/02/16 02:21:37;;;;;;;1.17;0.97;;;;;;;;;;5015684;28;20178;-62
2022/02/16 02:24:04;;;;;;;0.90;0.90;;;;;;;;;;5027455;28;20271;-61
2022/02/16 02:26:30;;;;;;;5.83;1.00;;;;;;;;;;5012061;28;20225;-61
2022/02/16 02:28:56;;;;;;;2.20;1.10;;;;;;;;;;5015351;28;20186;-61
2022/02/16 02:31:38;;;;;;;1.10;1.03;;;;;;;;;;5027729;28;20247;-61
2022/02/16 02:34:08;;;;;;;0.90;0.90;;;;;;;;;;5003260;28;20212;-61
2022/02/16 02:36:37;;;;;;;1.03;1.03;;;;;;;;;;5018985;28;20182;-62
2022/02/16 02:39:04;;;;;;;1.13;1.03;;;;;;;;;;5012850;28;20186;-62
2022/02/16 02:41:31;;;;;;;0.80;0.80;;;;;;;;;;5029568;28;20182;-61
2022/02/16 02:43:58;;;;;;;1.00;0.90;;;;;;;;;;5030427;28;20217;-61
2022/02/16 02:46:24;;;;;;;0.87;0.87;;;;;;;;;;5027471;28;20189;-61
2022/02/16 02:48:51;;;;;;;0.90;0.90;;;;;;;;;;5013722;28;20209;-62
2022/02/16 02:51:20;;;;;;;0.80;0.70;;;;;;;;;;5024268;28;20208;-62
2022/02/16 02:53:46;;;;;;;0.97;0.97;;;;;;;;;;5023002;28;20208;-61
2022/02/16 02:56:16;;;;;;;2.57;1.20;;;;;;;;;;5013572;28;20194;-62
2022/02/16 02:58:42;;;;;;;1.00;1.00;;;;;;;;;;5024424;28;20697;-62
2022/02/16 03:01:09;;;;;;;1.00;1.00;;;;;;;;;;5016140;28;20204;-61
2022/02/16 03:03:36;;;;;;;1.33;1.23;;;;;;;;;;4998894;28;20276;-62
2022/02/16 03:06:03;;;;;;;1.00;0.90;;;;;;;;;;5017231;28;20418;-61
2022/02/16 03:08:33;;;;;;;0.87;0.87;;;;;;;;;;5005728;28;20638;-61
2022/02/16 03:10:59;;;;;;;1.00;1.00;;;;;;;;;;4992120;28;20522;-61
2022/02/16 03:13:25;;;;;;;1.00;1.00;;;;;;;;;;5032566;28;20282;-61
2022/02/16 03:15:55;;;;;;;0.90;0.90;;;;;;;;;;5029084;28;20201;-61
2022/02/16 03:18:21;;;;;;;0.80;0.80;;;;;;;;;;4987136;28;20546;-61
2022/02/16 03:20:49;;;;;;;1.30;1.20;;;;;;;;;;5008046;28;20684;-61
2022/02/16 03:23:18;;;;;;;1.00;1.00;;;;;;;;;;5026310;28;20188;-61
2022/02/16 03:25:44;;;;;;;1.03;1.03;;;;;;;;;;5026711;28;20216;-61
2022/02/16 03:28:11;;;;;;;0.97;0.97;;;;;;;;;;5028132;28;20189;-61
2022/02/16 03:30:37;;;;;;;2.53;0.97;;;;;;;;;;5025438;28;20780;-61
2022/02/16 03:33:05;;;;;;;1.03;0.93;;;;;;;;;;5004320;28;20716;-61
2022/02/16 03:35:31;;;;;;;0.97;0.97;;;;;;;;;;5024103;28;20197;-61
2022/02/16 03:37:58;;;;;;;1.07;1.00;;;;;;;;;;5026397;28;20888;-61
2022/02/16 03:40:24;;;;;;;0.90;0.90;;;;;;;;;;5028741;28;20174;-61
2022/02/16 03:42:54;;;;;;;1.10;1.10;;;;;;;;;;5017235;28;20533;-61
2022/02/16 03:45:23;;;;;;;1.20;1.00;;;;;;;;;;5036721;28;20637;-61
2022/02/16 03:47:49;;;;;;;2.33;1.20;;;;;;;;;;5017424;28;20598;-61
2022/02/16 03:50:16;;;;;;;0.73;0.73;;;;;;;;;;5021389;28;20540;-61
2022/02/16 03:52:42;;;;;;;0.90;0.90;;;;;;;;;;5025706;28;20217;-61
2022/02/16 03:55:09;;;;;;;1.73;0.90;;;;;;;;;;5007294;28;20680;-61
2022/02/16 03:57:36;;;;;;;0.80;0.80;;;;;;;;;;5026690;28;20206;-61
2022/02/16 04:00:04;;;;;;;1.10;1.00;;;;;;;;;;5013321;28;20189;-61
2022/02/16 04:02:30;;;;;;;1.00;1.00;;;;;;;;;;5017278;28;20668;-61
2022/02/16 04:04:59;;;;;;;0.90;0.90;;;;;;;;;;5020821;28;20272;-61
2022/02/16 04:07:26;;;;;;;0.77;0.77;;;;;;;;;;5015916;28;20646;-60
2022/02/16 04:09:52;;;;;;;0.73;0.73;;;;;;;;;;5026864;28;20206;-61
2022/02/16 04:12:21;;;;;;;0.77;0.77;;;;;;;;;;5028692;28;20193;-61
2022/02/16 04:14:48;;;;;;;1.27;1.10;;;;;;;;;;5027652;28;20228;-61
2022/02/16 04:17:17;;;;;;;1.57;1.47;;;;;;;;;;5031023;28;20647;-61
2022/02/16 04:19:43;;;;;;;0.90;0.90;;;;;;;;;;5031440;28;20284;-61
2022/02/16 04:22:14;;;;;;;0.77;0.77;;;;;;;;;;5019370;28;20201;-61
2022/02/16 04:24:42;;;;;;;0.80;0.70;;;;;;;;;;5022146;28;20268;-61
2022/02/16 04:27:08;;;;;;;1.03;0.80;;;;;;;;;;5021791;28;20186;-61
2022/02/16 04:29:35;;;;;;;1.70;0.70;;;;;;;;;;5035459;28;20408;-61
2022/02/16 04:32:07;;;;;;;1.50;1.40;;;;;;;;;;5016537;28;20179;-61
2022/02/16 04:34:33;;;;;;;0.80;0.70;;;;;;;;;;5027473;28;20185;-62
2022/02/16 04:37:03;;;;;;;0.73;0.73;;;;;;;;;;5024203;28;20546;-61
2022/02/16 04:39:33;;;;;;;0.73;0.73;;;;;;;;;;5039529;28;20583;-62
2022/02/16 04:41:59;;;;;;;0.90;0.90;;;;;;;;;;5018289;28;20650;-61
2022/02/16 04:44:25;;;;;;;1.20;0.80;;;;;;;;;;5025974;28;20637;-62
2022/02/16 04:46:52;;;;;;;0.67;0.67;;;;;;;;;;5034691;28;20723;-61
2022/02/16 04:49:18;;;;;;;0.67;0.67;;;;;;;;;;5020284;28;20170;-61
2022/02/16 04:51:45;;;;;;;1.17;1.10;;;;;;;;;;5024540;28;20441;-61
2022/02/16 04:54:12;;;;;;;1.43;0.90;;;;;;;;;;5035714;28;20193;-62
2022/02/16 04:56:38;;;;;;;0.70;0.70;;;;;;;;;;5019148;28;20197;-62
2022/02/16 04:59:04;;;;;;;0.70;0.67;;;;;;;;;;5023997;28;20654;-61
2022/02/16 05:01:31;;;;;;;0.70;0.70;;;;;;;;;;5021851;28;20676;-61
2022/02/16 05:03:57;;;;;;;1.80;0.93;;;;;;;;;;5023616;28;20233;-61
2022/02/16 05:06:30;;;;;;;1.00;1.00;;;;;;;;;;5023785;28;20182;-61
2022/02/16 05:08:57;;;;;;;0.80;0.80;;;;;;;;;;5025426;28;20182;-61
2022/02/16 05:11:24;;;;;;;0.80;0.80;;;;;;;;;;5025373;28;20567;-61
2022/02/16 05:13:53;;;;;;;1.17;0.73;;;;;;;;;;5014861;28;20735;-61
2022/02/16 05:16:22;;;;;;;2.10;1.20;;;;;;;;;;5027778;28;21122;-61
2022/02/16 05:18:48;;;;;;;0.60;0.60;;;;;;;;;;5018455;28;20592;-61
2022/02/16 05:21:20;;;;;;;1.40;1.30;;;;;;;;;;5025031;28;20701;-61
2022/02/16 05:23:46;;;;;;;1.80;1.10;;;;;;;;;;5022510;28;20178;-61
2022/02/16 05:26:12;;;;;;;0.60;0.60;;;;;;;;;;5013100;28;20197;-61
2022/02/16 05:28:38;;;;;;;1.93;0.70;;;;;;;;;;5023782;28;20531;-61
2022/02/16 05:31:05;;;;;;;1.37;0.87;;;;;;;;;;5020767;28;20174;-60
2022/02/16 05:33:34;;;;;;;0.70;0.60;;;;;;;;;;5011573;28;20324;-61
2022/02/16 05:36:00;;;;;;;0.80;0.80;;;;;;;;;;5018198;28;20182;-60
2022/02/16 05:38:27;;;;;;;1.17;0.90;;;;;;;;;;5026940;28;20549;-61
2022/02/16 05:41:00;;;;;;;0.67;0.60;;;;;;;;;;5017190;28;20208;-61
2022/02/16 05:43:26;;;;;;;1.03;0.70;;;;;;;;;;5000752;28;20201;-61
2022/02/16 05:45:52;;;;;;;4.00;0.80;;;;;;;;;;5026150;28;20213;-61
2022/02/16 05:48:21;;;;;;;0.77;0.77;;;;;;;;;;5025126;28;20213;-61
2022/02/16 05:50:48;;;;;;;2.73;0.90;;;;;;;;;;5023661;28;20577;-61
2022/02/16 05:53:15;;;;;;;1.13;0.70;;;;;;;;;;5023263;28;20217;-62
2022/02/16 05:55:42;;;;;;;2.43;0.93;;;;;;;;;;5019497;28;20186;-61
2022/02/16 05:58:09;;;;;;;0.57;0.57;;;;;;;;;;5019107;28;20293;-61
2022/02/16 06:00:38;;;;;;;0.83;0.83;;;;;;;;;;5024347;28;20178;-61
2022/02/16 06:03:04;;;;;;;0.70;0.70;;;;;;;;;;5027488;28;20849;-61
2022/02/16 06:05:31;;;;;;;0.70;0.70;;;;;;;;;;5051360;28;20194;-61
2022/02/16 06:07:57;;;;;;;1.00;1.00;;;;;;;;;;5041166;28;20190;-61
2022/02/16 06:10:24;;;;;;;1.60;0.67;;;;;;;;;;5026949;28;20186;-61
2022/02/16 06:12:50;;;;;;;0.70;0.70;;;;;;;;;;5020343;28;20620;-61
2022/02/16 06:15:17;;;;;;;1.00;0.90;;;;;;;;;;5022826;28;20201;-61
2022/02/16 06:17:46;;;;;;;0.80;0.80;;;;;;;;;;5008333;28;20186;-59
2022/02/16 06:20:13;;;;;;;1.20;1.10;;;;;;;;;;5014891;28;20521;-60
2022/02/16 06:22:39;;;;;;;1.13;0.90;;;;;;;;;;5025155;28;20406;-60
2022/02/16 06:25:06;;;;;;;1.67;0.90;;;;;;;;;;5016327;28;20307;-60
2022/02/16 06:27:34;;;;;;;0.90;0.90;;;;;;;;;;5035291;28;20182;-60
2022/02/16 06:30:01;;;;;;;1.43;0.90;;;;;;;;;;5017222;28;20241;-60
2022/02/16 06:32:28;;;;;;;3.33;1.23;;;;;;;;;;5014280;28;20182;-61
2022/02/16 06:34:54;;;;;;;5.00;0.80;;;;;;;;;;5014823;28;20301;-60
2022/02/16 06:37:21;;;;;;;2.70;1.87;;;;;;;;;;5017977;28;20174;-60
2022/02/16 06:39:48;;;;;;;1.20;0.93;;;;;;;;;;5025376;28;20174;-60
2022/02/16 06:42:14;;;;;;;3.33;0.87;;;;;;;;;;5020381;28;20265;-62
2022/02/16 06:44:40;;;;;;;2.17;1.00;;;;;;;;;;5016064;28;20180;-60
2022/02/16 06:47:08;;;;;;;1.63;0.80;;;;;;;;;;5024236;28;20178;-60
2022/02/16 06:49:35;;;;;;;2.57;0.77;;;;;;;;;;5019211;28;20268;-60
2022/02/16 06:52:04;;;;;;;2.23;0.87;;;;;;;;;;5026455;28;20186;-60
2022/02/16 06:54:34;;;;;;;1.93;0.80;;;;;;;;;;5016361;28;20608;-59
2022/02/16 06:57:01;;;;;;;0.90;0.87;;;;;;;;;;5023905;28;20212;-61
2022/02/16 06:59:27;;;;;;;1.00;0.70;;;;;;;;;;5032778;28;20209;-59
2022/02/16 07:01:53;;;;;;;0.70;0.70;;;;;;;;;;5043872;28;20172;-60
2022/02/16 07:04:20;;;;;;;1.20;0.87;;;;;;;;;;5036499;28;20178;-61
2022/02/16 07:06:46;;;;;;;0.83;0.83;;;;;;;;;;5032571;28;20527;-60
2022/02/16 07:09:13;;;;;;;3.53;0.70;;;;;;;;;;5007750;28;20182;-60
2022/02/16 07:11:39;;;;;;;0.63;0.63;;;;;;;;;;5019000;28;20193;-61
2022/02/16 07:14:05;;;;;;;0.70;0.70;;;;;;;;;;5029612;28;20285;-60
2022/02/16 07:16:32;;;;;;;0.93;0.60;;;;;;;;;;5017191;28;20644;-61
2022/02/16 07:19:01;;;;;;;1.83;0.70;;;;;;;;;;5035068;28;20187;-61
2022/02/16 07:21:27;;;;;;;0.73;0.63;;;;;;;;;;5043728;28;20180;-61
2022/02/16 07:23:54;;;;;;;2.70;0.80;;;;;;;;;;5029438;28;20697;-61
2022/02/16 07:26:21;;;;;;;0.40;0.40;;;;;;;;;;5018402;28;20194;-62
2022/02/16 07:28:47;;;;;;;1.03;0.63;;;;;;;;;;5022171;28;20642;-61
2022/02/16 07:31:14;;;;;;;0.63;0.63;;;;;;;;;;5031197;28;20189;-60
2022/02/16 07:33:40;;;;;;;0.60;0.60;;;;;;;;;;5037055;28;20707;-59
2022/02/16 07:36:06;;;;;;;2.03;1.03;;;;;;;;;;5048790;28;20455;-60
2022/02/16 07:38:33;;;;;;;2.10;0.90;;;;;;;;;;5024208;28;20288;-59
2022/02/16 07:41:00;;;;;;;0.57;0.50;;;;;;;;;;5030659;28;20633;-60
2022/02/16 07:43:34;;;;;;;2.00;0.90;;;;;;;;;;5016321;28;20182;-60
2022/02/16 07:46:01;;;;;;;0.87;0.63;;;;;;;;;;5020092;28;20185;-60
2022/02/16 07:48:30;;;;;;;0.63;0.60;;;;;;;;;;5029136;28;20269;-60
2022/02/16 07:50:56;;;;;;;0.93;0.83;;;;;;;;;;5029766;28;20272;-60
2022/02/16 07:53:23;;;;;;;0.70;0.70;;;;;;;;;;5047606;28;20232;-60
2022/02/16 07:55:49;;;;;;;6.40;1.30;;;;;;;;;;5032672;28;20182;-60
2022/02/16 07:58:16;;;;;;;0.57;0.57;;;;;;;;;;5031559;28;20264;-60
2022/02/16 08:00:45;;;;;;;0.70;0.50;;;;;;;;;;5022500;28;20268;-60
2022/02/16 08:03:12;;;;;;;1.97;0.60;;;;;;;;;;5034100;28;20709;-59
2022/02/16 08:05:43;;;;;;;1.40;0.70;;;;;;;;;;5029916;28;20187;-59
2022/02/16 08:08:12;;;;;;;0.40;0.40;;;;;;;;;;5035615;28;20265;-59
2022/02/16 08:10:38;;;;;;;0.70;0.70;;;;;;;;;;5051590;28;20213;-59
2022/02/16 08:13:07;;;;;;;0.80;0.70;;;;;;;;;;5030650;28;20201;-61
2022/02/16 08:15:36;;;;;;;0.60;0.60;;;;;;;;;;5027830;28;20201;-60
2022/02/16 08:18:03;;;;;;;0.50;0.50;;;;;;;;;;5041216;28;20173;-60
2022/02/16 08:20:39;;;;;;;2.43;0.73;;;;;;;;;;5047856;28;20967;-60
2022/02/16 08:23:14;;;;;;;0.83;0.70;;;;;;;;;;5035893;28;20264;-60
2022/02/16 08:25:41;;;;;;;0.70;0.70;;;;;;;;;;5032911;28;20249;-60
2022/02/16 08:28:08;;;;;;;1.27;0.73;;;;;;;;;;5027927;28;20189;-60
2022/02/16 08:30:34;;;;;;;0.70;0.70;;;;;;;;;;5024786;28;20189;-60
2022/02/16 08:33:00;;;;;;;0.63;0.63;;;;;;;;;;5015645;28;20697;-60
2022/02/16 08:35:27;;;;;;;0.50;0.50;;;;;;;;;;5036818;28;20189;-60
2022/02/16 08:37:53;;;;;;;2.50;0.80;;;;;;;;;;5023161;28;20185;-60
2022/02/16 08:40:23;;;;;;;0.63;0.63;;;;;;;;;;5038223;28;20593;-60
2022/02/16 08:42:49;;;;;;;0.40;0.40;;;;;;;;;;5026495;28;20181;-60
2022/02/16 08:45:16;;;;;;;0.70;0.70;;;;;;;;;;5025985;28;20266;-60
2022/02/16 08:47:43;;;;;;;0.50;0.50;;;;;;;;;;5026010;28;20184;-60
2022/02/16 08:50:09;;;;;;;0.90;0.80;;;;;;;;;;5026323;28;20182;-60
2022/02/16 08:52:38;;;;;;;0.60;0.60;;;;;;;;;;5030583;28;20186;-61
2022/02/16 08:55:07;;;;;;;0.67;0.67;;;;;;;;;;5015723;28;20189;-61
2022/02/16 08:57:36;;;;;;;0.60;0.60;;;;;;;;;;5018684;28;20209;-60
2022/02/16 09:00:04;;;;;;;1.63;0.80;;;;;;;;;;5023631;28;20277;-59
2022/02/16 09:02:30;;;;;;;1.57;0.50;;;;;;;;;;5017609;28;20675;-60
2022/02/16 09:04:56;;;;;;;1.13;1.13;;;;;;;;;;5019316;28;20193;-60
2022/02/16 09:07:29;;;;;;;0.43;0.43;;;;;;;;;;5021864;28;20273;-60
2022/02/16 09:09:59;;;;;;;0.57;0.57;;;;;;;;;;5019158;28;20672;-60
2022/02/16 09:12:26;;;;;;;0.70;0.70;;;;;;;;;;5018591;28;20182;-60
2022/02/16 09:14:52;;;;;;;0.67;0.67;;;;;;;;;;5018269;28;20248;-60
2022/02/16 09:17:19;;;;;;;0.60;0.60;;;;;;;;;;5031680;28;20641;-60
2022/02/16 09:19:48;;;;;;;2.90;0.70;;;;;;;;;;5027716;28;20198;-60
2022/02/16 09:22:14;;;;;;;2.10;0.70;;;;;;;;;;5023274;28;20189;-60
2022/02/16 09:24:42;;;;;;;1.90;1.00;;;;;;;;;;5023611;28;20225;-60
2022/02/16 09:27:13;;;;;;;4.63;0.90;;;;;;;;;;5049505;28;20281;-60
2022/02/16 09:29:40;;;;;;;1.13;0.97;;;;;;;;;;5039435;28;20180;-60
2022/02/16 09:32:06;;;;;;;0.50;0.50;;;;;;;;;;5024220;28;20209;-60
2022/02/16 09:34:33;;;;;;;18.53;2.23;;;;;;;;;;5016660;28;20272;-60
2022/02/16 09:37:03;;;;;;;1.87;0.70;;;;;;;;;;5021578;28;20179;-60
2022/02/16 09:39:30;;;;;;;1.63;1.03;;;;;;;;;;5029033;28;20180;-60
2022/02/16 09:41:57;;;;;;;1.37;1.17;;;;;;;;;;5034934;28;20654;-60
2022/02/16 09:44:43;;;;;;;1.70;0.90;;;;;;;;;;5040189;28;20178;-61
2022/02/16 09:47:09;;;;;;;0.90;0.90;;;;;;;;;;5015772;28;20185;-60
2022/02/16 09:49:38;;;;;;;0.83;0.80;;;;;;;;;;5028449;28;20188;-60
2022/02/16 09:52:05;;;;;;;0.80;0.80;;;;;;;;;;5028135;28;20185;-61
2022/02/16 09:54:31;;;;;;;0.90;0.90;;;;;;;;;;5039136;28;20233;-60
2022/02/16 09:56:58;;;;;;;1.83;1.10;;;;;;;;;;5025477;28;20209;-60
2022/02/16 09:59:24;;;;;;;5.37;1.73;;;;;;;;;;5046840;28;20664;-60
2022/02/16 10:01:58;;;;;;;1.93;1.03;;;;;;;;;;5016098;28;20185;-60
2022/02/16 10:04:26;;;;;;;1.00;0.90;;;;;;;;;;5021187;28;20656;-61
2022/02/16 10:06:53;;;;;;;2.27;1.23;;;;;;;;;;5028342;28;20243;-60
2022/02/16 10:09:27;;;;;;;2.80;0.97;;;;;;;;;;5018212;28;20644;-60
2022/02/16 10:12:11;;;;;;;0.97;0.97;;;;;;;;;;5025468;28;20666;-61
2022/02/16 10:14:39;;;;;;;1.20;1.10;;;;;;;;;;5032514;28;20206;-61
2022/02/16 10:17:25;;;;;;;1.27;1.10;;;;;;;;;;5023759;28;20185;-61
2022/02/16 10:19:53;;;;;;;1.23;1.13;;;;;;;;;;5041923;28;20445;-61
2022/02/16 10:22:20;;;;;;;4.90;1.30;;;;;;;;;;5039994;28;20184;-61
2022/02/16 10:24:47;;;;;;;2.77;1.47;;;;;;;;;;5046347;28;20583;-61
2022/02/16 10:27:14;;;;;;;3.43;1.10;;;;;;;;;;5023617;28;20593;-60
2022/02/16 10:29:40;;;;;;;1.20;1.10;;;;;;;;;;5046009;28;20252;-61
2022/02/16 10:32:07;;;;;;;1.57;1.30;;;;;;;;;;5027797;28;20209;-60
2022/02/16 10:34:46;;;;;;;1.43;1.23;;;;;;;;;;5023492;28;20205;-60
2022/02/16 10:37:13;;;;;;;1.23;1.13;;;;;;;;;;5020333;28;20188;-60
2022/02/16 10:39:42;;;;;;;1.47;1.37;;;;;;;;;;5034939;28;20644;-61
2022/02/16 10:42:12;;;;;;;3.40;1.20;;;;;;;;;;5034519;28;20281;-60
2022/02/16 10:44:40;;;;;;;2.20;1.10;;;;;;;;;;5022553;28;20186;-60
2022/02/16 10:47:11;;;;;;;2.90;1.33;;;;;;;;;;5031753;28;20280;-60
2022/02/16 10:49:46;;;;;;;2.67;1.63;;;;;;;;;;5044098;28;20649;-61
2022/02/16 10:52:15;;;;;;;1.27;1.17;;;;;;;;;;5025912;28;20691;-61
2022/02/16 10:54:51;;;;;;;1.90;1.40;;;;;;;;;;5047996;28;20695;-61
2022/02/16 10:57:17;;;;;;;1.40;1.30;;;;;;;;;;5018695;28;20236;-61
2022/02/16 10:59:44;;;;;;;1.27;1.17;;;;;;;;;;5040596;28;20645;-61
2022/02/16 11:02:11;;;;;;;1.30;1.20;;;;;;;;;;5011713;28;20181;-60
2022/02/16 11:04:39;;;;;;;1.60;1.30;;;;;;;;;;5020025;28;20242;-60
2022/02/16 11:07:06;;;;;;;1.40;1.30;;;;;;;;;;5026103;28;20838;-60
2022/02/16 11:09:40;;;;;;;1.80;1.20;;;;;;;;;;5017510;28;20177;-61
2022/02/16 11:12:06;;;;;;;1.43;1.33;;;;;;;;;;5044784;28;20637;-60
2022/02/16 11:14:33;;;;;;;1.40;1.30;;;;;;;;;;5049256;28;20217;-60
2022/02/16 11:17:00;;;;;;;1.77;1.33;;;;;;;;;;5037566;28;20208;-60
2022/02/16 11:19:27;;;;;;;1.30;1.20;;;;;;;;;;5035769;28;20182;-60
2022/02/16 11:21:57;;;;;;;3.10;1.40;;;;;;;;;;5036242;28;20278;-60
2022/02/16 11:25:00;;;;;;;1.40;1.30;;;;;;;;;;5004836;28;20422;-60
2022/02/16 11:27:40;;;;;;;1.50;1.40;;;;;;;;;;4973009;28;20188;-60
2022/02/16 11:30:07;;;;;;;1.53;1.43;;;;;;;;;;5012303;28;20351;-60
2022/02/16 11:32:35;;;;;;;1.40;1.27;;;;;;;;;;5005856;28;20179;-62
2022/02/16 11:35:12;;;;;;;1.40;1.30;;;;;;;;;;5000412;28;20195;-60
2022/02/16 11:37:39;;;;;;;1.40;1.30;;;;;;;;;;4998405;28;20217;-60
2022/02/16 11:40:08;;;;;;;1.30;1.20;;;;;;;;;;4994417;28;20210;-61
2022/02/16 11:42:50;;;;;;;1.40;1.30;;;;;;;;;;5014765;28;20171;-60
2022/02/16 11:45:16;;;;;;;1.30;1.20;;;;;;;;;;5011082;28;20710;-60
2022/02/16 11:47:45;;;;;;;1.20;1.20;;;;;;;;;;5010280;28;20258;-60
2022/02/16 11:50:17;;;;;;;1.60;1.50;;;;;;;;;;4995146;28;20185;-60
2022/02/16 11:52:52;;;;;;;1.50;1.40;;;;;;;;;;5002685;28;20551;-60
2022/02/16 11:55:23;;;;;;;1.20;1.20;;;;;;;;;;5007237;28;20640;-61
2022/02/16 11:57:51;;;;;;;1.83;1.67;;;;;;;;;;4995554;28;20760;-61
2022/02/16 12:00:20;;;;;;;1.53;1.43;;;;;;;;;;5020428;28;20608;-61
2022/02/16 12:03:01;;;;;;;1.20;1.20;;;;;;;;;;4994655;28;20244;-61
2022/02/16 12:05:45;;;;;;;1.40;1.30;;;;;;;;;;5020279;28;20182;-60
2022/02/16 12:08:13;;;;;;;2.80;1.60;;;;;;;;;;5028653;28;20564;-60
2022/02/16 12:10:51;;;;;;;1.47;1.37;;;;;;;;;;5009118;28;20183;-60
2022/02/16 12:13:24;;;;;;;1.60;1.40;;;;;;;;;;5010540;28;20280;-60
2022/02/16 12:15:55;;;;;;;1.37;1.27;;;;;;;;;;5015867;28;20732;-61
2022/02/16 12:18:21;;;;;;;2.87;1.57;;;;;;;;;;5001908;28;20235;-61
2022/02/16 12:20:50;;;;;;;1.53;1.43;;;;;;;;;;5013642;28;20197;-62
2022/02/16 12:23:23;;;;;;;2.73;1.27;;;;;;;;;;5001247;28;20182;-61
2022/02/16 12:26:03;;;;;;;1.90;1.53;;;;;;;;;;5019911;28;20217;-61
2022/02/16 12:28:29;;;;;;;1.77;1.67;;;;;;;;;;5034135;28;20186;-60
2022/02/16 12:30:55;;;;;;;1.70;1.60;;;;;;;;;;5023822;28;20675;-60
2022/02/16 12:33:22;;;;;;;1.67;1.57;;;;;;;;;;5005479;28;20211;-60
2022/02/16 12:35:48;;;;;;;1.37;1.23;;;;;;;;;;5037115;28;20181;-61
2022/02/16 12:38:22;;;;;;;1.60;1.50;;;;;;;;;;5019217;28;20178;-61
2022/02/16 12:40:49;;;;;;;1.47;1.37;;;;;;;;;;5027666;28;20273;-61
2022/02/16 12:43:20;;;;;;;1.97;1.57;;;;;;;;;;5000229;28;20597;-61
2022/02/16 12:45:48;;;;;;;4.03;1.80;;;;;;;;;;5003493;28;20271;-60
2022/02/16 12:48:16;;;;;;;1.70;1.60;;;;;;;;;;5017662;28;20207;-60
2022/02/16 12:50:42;;;;;;;3.70;1.53;;;;;;;;;;5024988;28;20178;-60
2022/02/16 12:53:10;;;;;;;1.93;1.60;;;;;;;;;;5033717;28;20255;-61
2022/02/16 12:55:44;;;;;;;1.53;1.33;;;;;;;;;;5021110;28;20227;-61
2022/02/16 12:58:13;;;;;;;1.50;1.40;;;;;;;;;;5033633;28;20190;-61
2022/02/16 13:00:55;;;;;;;2.53;1.80;;;;;;;;;;5032809;28;20180;-61
2022/02/16 13:03:29;;;;;;;3.57;1.43;;;;;;;;;;5031457;28;20186;-61
2022/02/16 13:05:57;;;;;;;1.57;1.47;;;;;;;;;;5032676;28;20243;-61
2022/02/16 13:08:25;;;;;;;1.50;1.40;;;;;;;;;;5022366;28;20488;-61
2022/02/16 13:10:51;;;;;;;2.43;1.50;;;;;;;;;;5027448;28;20182;-61
2022/02/16 13:13:23;;;;;;;2.83;1.37;;;;;;;;;;5039649;28;20197;-60
2022/02/16 13:15:50;;;;;;;1.43;1.30;;;;;;;;;;5029755;28;20263;-61
2022/02/16 13:18:28;;;;;;;1.53;1.40;;;;;;;;;;5013670;28;20715;-61
2022/02/16 13:21:27;;;;;;;2.07;1.43;;;;;;;;;;5004002;28;20189;-61
2022/02/16 13:24:06;;;;;;;1.50;1.17;;;;;;;;;;5005190;28;20284;-61
2022/02/16 13:26:39;;;;;;;1.00;0.90;;;;;;;;;;5038473;28;20169;-61
2022/02/16 13:29:07;;;;;;;2.63;1.47;;;;;;;;;;5043436;28;20680;-60
2022/02/16 13:31:40;;;;;;;1.47;1.33;;;;;;;;;;5022578;28;20276;-61
2022/02/16 13:34:08;;;;;;;1.27;1.17;;;;;;;;;;5019077;28;20214;-61
2022/02/16 13:36:36;;;;;;;1.47;1.30;;;;;;;;;;5013470;28;20642;-61
2022/02/16 13:39:10;;;;;;;1.70;1.50;;;;;;;;;;5021396;28;20189;-61
2022/02/16 13:41:36;;;;;;;1.60;1.50;;;;;;;;;;5045965;28;20185;-61
2022/02/16 13:44:06;;;;;;;2.70;1.43;;;;;;;;;;5031918;28;20189;-61
2022/02/16 13:46:47;;;;;;;3.03;1.47;;;;;;;;;;5045734;28;20186;-61
2022/02/16 13:49:20;;;;;;;2.47;1.97;;;;;;;;;;5044909;28;20193;-61
2022/02/16 13:52:11;;;;;;;4.50;1.70;;;;;;;;;;5003373;28;20182;-61
2022/02/16 13:54:38;;;;;;;3.93;2.13;;;;;;;;;;5034025;28;20216;-61
2022/02/16 13:57:11;;;;;;;3.83;2.20;;;;;;;;;;5037177;28;20672;-61
2022/02/16 13:59:53;;;;;;;4.30;2.50;;;;;;;;;;5045691;28;20192;-61
2022/02/16 14:02:21;;;;;;;2.50;1.77;;;;;;;;;;5028103;28;20189;-61
2022/02/16 14:04:51;;;;;;;4.17;2.53;;;;;;;;;;5045889;28;20214;-61
2022/02/16 14:07:19;;;;;;;7.33;2.00;;;;;;;;;;5027178;28;20178;-60
2022/02/16 14:09:45;;;;;;;5.05;2.70;;;;;;;;;;5038238;28;20458;-60
2022/02/16 14:12:19;;;;;;;3.20;1.93;;;;;;;;;;5016438;28;20570;-60
2022/02/16 14:14:48;;;;;;;4.57;2.20;;;;;;;;;;5020193;28;20703;-60
2022/02/16 14:17:15;;;;;;;3.20;2.00;;;;;;;;;;5035970;28;20202;-60
2022/02/16 14:19:42;;;;;;;5.27;2.43;;;;;;;;;;5041689;28;20621;-60
2022/02/16 14:22:09;;;;;;;5.93;3.00;;;;;;;;;;5025293;28;20231;-60
2022/02/16 14:24:36;;;;;;;8.37;3.20;;;;;;;;;;5007493;28;20225;-60
2022/02/16 14:27:13;;;;;;;5.03;3.27;;;;;;;;;;5012106;28;20225;-60
2022/02/16 14:29:41;;;;;;;4.77;3.10;;;;;;;;;;5008176;28;20570;-60
2022/02/16 14:32:11;;;;;;;7.57;3.50;;;;;;;;;;5019151;28;20235;-60
2022/02/16 14:34:40;;;;;;;9.17;3.50;;;;;;;;;;5011942;28;20693;-60
2022/02/16 14:37:07;;;;;;;5.13;2.90;;;;;;;;;;4996615;28;20185;-60
2022/02/16 14:39:37;;;;;;;9.37;3.30;;;;;;;;;;4984574;28;20530;-60
2022/02/16 14:42:07;;;;;;;7.80;3.03;;;;;;;;;;5007645;28;20713;-60
2022/02/16 14:44:33;;;;;;;7.67;3.60;;;;;;;;;;4991869;28;20178;-60
2022/02/16 14:47:00;;;;;;;6.70;2.70;;;;;;;;;;4994176;28;20190;-60
2022/02/16 14:49:27;;;;;;;6.13;3.23;;;;;;;;;;5005841;28;20208;-60
2022/02/16 14:51:54;;;;;;;11.07;3.80;;;;;;;;;;5010012;28;20189;-61